Byron, Illinois
Current Conditions -  °F | °C
As of 4:54 PM on Friday 28 Nov 2014 (Local Time) from KRFD Reporting Station
Overcast Overcast  
Wind Chill: 23°   Ceiling: 14000
Heat Index: 31°   Visibility: 9mi
Dew Point: 26°   Wind: 9mph
Humidity: 82%   Direction: 150°SSE
Pressure: 29.95"   Gusts: NA
Location:  42.13°N, 89.26°W
Report Text: KRFD 282254Z 15008KT 9SM OVC140 M01/M03 A2995 RMK AO2 SLP152 T10061033
Loading
Personal Weather Stations






























Interactive Weather Map New forecast layout! Learn more

10-Day Weather Forecast

Advertisements
Track Severe Weather on mobile